sensor_id;sensor_type;location;lat;lon;timestamp;temperature;humidity
21031;DHT22;61072;47.808;7.636;2023-02-01T00:01:07;5.60;99.90
21031;DHT22;61072;47.808;7.636;2023-02-01T00:03:34;5.60;99.90
21031;DHT22;61072;47.808;7.636;2023-02-01T00:06:02;5.60;99.90
21031;DHT22;61072;47.808;7.636;2023-02-01T00:08:29;5.60;99.90
21031;DHT22;61072;47.808;7.636;2023-02-01T00:11:05;5.60;99.90
21031;DHT22;61072;47.808;7.636;2023-02-01T00:13:33;5.70;99.90
21031;DHT22;61072;47.808;7.636;2023-02-01T00:18:44;5.60;99.90
21031;DHT22;61072;47.808;7.636;2023-02-01T00:21:12;5.60;99.90
21031;DHT22;61072;47.808;7.636;2023-02-01T00:23:39;5.60;99.90
21031;DHT22;61072;47.808;7.636;2023-02-01T00:26:07;5.50;99.90
21031;DHT22;61072;47.808;7.636;2023-02-01T00:28:37;5.50;99.90
21031;DHT22;61072;47.808;7.636;2023-02-01T00:31:04;5.50;99.90
21031;DHT22;61072;47.808;7.636;2023-02-01T00:33:31;5.50;99.90
21031;DHT22;61072;47.808;7.636;2023-02-01T00:36:00;5.50;99.90
21031;DHT22;61072;47.808;7.636;2023-02-01T00:38:28;5.50;99.90
21031;DHT22;61072;47.808;7.636;2023-02-01T00:41:01;5.50;99.90
21031;DHT22;61072;47.808;7.636;2023-02-01T00:43:28;5.50;99.90
21031;DHT22;61072;47.808;7.636;2023-02-01T00:45:54;5.50;99.90
21031;DHT22;61072;47.808;7.636;2023-02-01T00:48:21;5.40;99.90
21031;DHT22;61072;47.808;7.636;2023-02-01T00:50:48;5.40;99.90
21031;DHT22;61072;47.808;7.636;2023-02-01T00:53:14;5.40;99.90
21031;DHT22;61072;47.808;7.636;2023-02-01T00:55:45;5.30;99.90
21031;DHT22;61072;47.808;7.636;2023-02-01T00:58:12;5.30;99.90
21031;DHT22;61072;47.808;7.636;2023-02-01T01:00:39;5.30;99.90
21031;DHT22;61072;47.808;7.636;2023-02-01T01:03:06;5.30;99.90
21031;DHT22;61072;47.808;7.636;2023-02-01T01:05:46;5.30;99.90
21031;DHT22;61072;47.808;7.636;2023-02-01T01:08:14;5.20;99.90
21031;DHT22;61072;47.808;7.636;2023-02-01T01:10:41;5.20;99.90
21031;DHT22;61072;47.808;7.636;2023-02-01T01:13:08;5.10;99.90
21031;DHT22;61072;47.808;7.636;2023-02-01T01:15:36;5.10;99.90
21031;DHT22;61072;47.808;7.636;2023-02-01T01:18:03;5.00;99.90
21031;DHT22;61072;47.808;7.636;2023-02-01T01:20:30;5.00;99.90
21031;DHT22;61072;47.808;7.636;2023-02-01T01:22:57;4.90;99.90
21031;DHT22;61072;47.808;7.636;2023-02-01T01:25:24;4.80;99.90
21031;DHT22;61072;47.808;7.636;2023-02-01T01:27:50;4.80;99.90
21031;DHT22;61072;47.808;7.636;2023-02-01T01:30:17;4.70;99.90
21031;DHT22;61072;47.808;7.636;2023-02-01T01:32:44;4.70;99.90
21031;DHT22;61072;47.808;7.636;2023-02-01T01:35:11;4.60;99.90
21031;DHT22;61072;47.808;7.636;2023-02-01T01:37:38;4.60;99.90
21031;DHT22;61072;47.808;7.636;2023-02-01T01:40:06;4.60;99.90
21031;DHT22;61072;47.808;7.636;2023-02-01T01:42:38;4.50;99.90
21031;DHT22;61072;47.808;7.636;2023-02-01T01:47:48;4.50;99.90
21031;DHT22;61072;47.808;7.636;2023-02-01T01:50:19;4.50;99.90
21031;DHT22;61072;47.808;7.636;2023-02-01T01:52:49;4.50;99.90
21031;DHT22;61072;47.808;7.636;2023-02-01T01:55:18;4.50;99.90
21031;DHT22;61072;47.808;7.636;2023-02-01T01:57:51;4.50;99.90
21031;DHT22;61072;47.808;7.636;2023-02-01T02:00:19;4.50;99.90
21031;DHT22;61072;47.808;7.636;2023-02-01T02:02:51;4.50;99.90
21031;DHT22;61072;47.808;7.636;2023-02-01T02:05:20;4.40;99.90
21031;DHT22;61072;47.808;7.636;2023-02-01T02:07:48;4.40;99.90
21031;DHT22;61072;47.808;7.636;2023-02-01T02:10:16;4.40;99.90
21031;DHT22;61072;47.808;7.636;2023-02-01T02:12:46;4.40;99.90
21031;DHT22;61072;47.808;7.636;2023-02-01T02:15:14;4.40;99.90
21031;DHT22;61072;47.808;7.636;2023-02-01T02:17:57;4.40;99.90
21031;DHT22;61072;47.808;7.636;2023-02-01T02:23:00;4.30;99.90
21031;DHT22;61072;47.808;7.636;2023-02-01T02:31:54;4.40;99.90
21031;DHT22;61072;47.808;7.636;2023-02-01T02:34:28;4.40;99.90
21031;DHT22;61072;47.808;7.636;2023-02-01T02:37:11;4.40;99.90
21031;DHT22;61072;47.808;7.636;2023-02-01T02:45:08;4.50;99.90
21031;DHT22;61072;47.808;7.636;2023-02-01T02:48:16;4.50;99.90
21031;DHT22;61072;47.808;7.636;2023-02-01T02:53:45;4.60;99.90
21031;DHT22;61072;47.808;7.636;2023-02-01T02:56:32;4.60;99.90
21031;DHT22;61072;47.808;7.636;2023-02-01T02:59:21;4.60;99.90
21031;DHT22;61072;47.808;7.636;2023-02-01T03:02:09;4.60;99.90
21031;DHT22;61072;47.808;7.636;2023-02-01T03:04:55;4.60;99.90
21031;DHT22;61072;47.808;7.636;2023-02-01T03:12:51;4.70;99.90
21031;DHT22;61072;47.808;7.636;2023-02-01T03:21:14;4.80;99.90
21031;DHT22;61072;47.808;7.636;2023-02-01T03:23:42;4.80;99.90
21031;DHT22;61072;47.808;7.636;2023-02-01T03:26:13;4.80;99.90
21031;DHT22;61072;47.808;7.636;2023-02-01T03:28:49;4.80;99.90
21031;DHT22;61072;47.808;7.636;2023-02-01T03:31:18;4.80;99.90
21031;DHT22;61072;47.808;7.636;2023-02-01T03:33:45;4.80;99.90
21031;DHT22;61072;47.808;7.636;2023-02-01T03:36:24;4.80;99.90
21031;DHT22;61072;47.808;7.636;2023-02-01T03:39:02;4.90;99.90
21031;DHT22;61072;47.808;7.636;2023-02-01T03:41:50;4.90;99.90
21031;DHT22;61072;47.808;7.636;2023-02-01T03:44:29;4.90;99.90
21031;DHT22;61072;47.808;7.636;2023-02-01T03:49:49;4.80;99.90
21031;DHT22;61072;47.808;7.636;2023-02-01T03:52:22;4.80;99.90
21031;DHT22;61072;47.808;7.636;2023-02-01T03:54:51;4.80;99.90
21031;DHT22;61072;47.808;7.636;2023-02-01T03:57:23;4.80;99.90
21031;DHT22;61072;47.808;7.636;2023-02-01T03:59:51;4.80;99.90
21031;DHT22;61072;47.808;7.636;2023-02-01T04:02:18;4.80;99.90
21031;DHT22;61072;47.808;7.636;2023-02-01T04:04:45;4.80;99.90
21031;DHT22;61072;47.808;7.636;2023-02-01T04:07:12;4.80;99.90
21031;DHT22;61072;47.808;7.636;2023-02-01T04:09:38;4.90;99.90
21031;DHT22;61072;47.808;7.636;2023-02-01T04:12:05;4.90;99.90
21031;DHT22;61072;47.808;7.636;2023-02-01T04:14:32;4.90;99.90
21031;DHT22;61072;47.808;7.636;2023-02-01T04:16:58;4.90;99.90
21031;DHT22;61072;47.808;7.636;2023-02-01T04:19:25;4.90;99.90
21031;DHT22;61072;47.808;7.636;2023-02-01T04:21:52;4.90;99.90
21031;DHT22;61072;47.808;7.636;2023-02-01T04:24:18;4.90;99.90
21031;DHT22;61072;47.808;7.636;2023-02-01T04:26:45;4.90;99.90
21031;DHT22;61072;47.808;7.636;2023-02-01T04:29:12;4.90;99.90
21031;DHT22;61072;47.808;7.636;2023-02-01T04:31:39;4.90;99.90
21031;DHT22;61072;47.808;7.636;2023-02-01T04:34:05;4.90;99.90
21031;DHT22;61072;47.808;7.636;2023-02-01T04:36:32;4.90;99.90
21031;DHT22;61072;47.808;7.636;2023-02-01T04:38:59;4.90;99.90
21031;DHT22;61072;47.808;7.636;2023-02-01T04:41:25;4.90;99.90
21031;DHT22;61072;47.808;7.636;2023-02-01T04:43:52;4.90;99.90
21031;DHT22;61072;47.808;7.636;2023-02-01T04:46:19;4.90;99.90
21031;DHT22;61072;47.808;7.636;2023-02-01T04:48:46;4.80;99.90
21031;DHT22;61072;47.808;7.636;2023-02-01T04:51:12;4.90;99.90
21031;DHT22;61072;47.808;7.636;2023-02-01T04:53:39;4.80;99.90
21031;DHT22;61072;47.808;7.636;2023-02-01T04:56:06;4.80;99.90
21031;DHT22;61072;47.808;7.636;2023-02-01T04:58:33;4.80;99.90
21031;DHT22;61072;47.808;7.636;2023-02-01T05:01:03;4.80;99.90
21031;DHT22;61072;47.808;7.636;2023-02-01T05:03:32;4.80;99.90
21031;DHT22;61072;47.808;7.636;2023-02-01T05:05:59;4.70;99.90
21031;DHT22;61072;47.808;7.636;2023-02-01T05:08:27;4.70;99.90
21031;DHT22;61072;47.808;7.636;2023-02-01T05:10:55;4.60;99.90
21031;DHT22;61072;47.808;7.636;2023-02-01T05:13:22;4.60;99.90
21031;DHT22;61072;47.808;7.636;2023-02-01T05:16:07;4.60;99.90
21031;DHT22;61072;47.808;7.636;2023-02-01T05:18:33;4.60;99.90
21031;DHT22;61072;47.808;7.636;2023-02-01T05:21:00;4.60;99.90
21031;DHT22;61072;47.808;7.636;2023-02-01T05:23:28;4.60;99.90
21031;DHT22;61072;47.808;7.636;2023-02-01T05:26:01;4.60;99.90
21031;DHT22;61072;47.808;7.636;2023-02-01T05:28:28;4.60;99.90
21031;DHT22;61072;47.808;7.636;2023-02-01T05:30:55;4.60;99.90
21031;DHT22;61072;47.808;7.636;2023-02-01T05:33:22;4.70;99.90
21031;DHT22;61072;47.808;7.636;2023-02-01T05:35:48;4.70;99.90
21031;DHT22;61072;47.808;7.636;2023-02-01T05:38:16;4.70;99.90
21031;DHT22;61072;47.808;7.636;2023-02-01T05:40:43;4.70;99.90
21031;DHT22;61072;47.808;7.636;2023-02-01T05:43:15;4.70;99.90
21031;DHT22;61072;47.808;7.636;2023-02-01T05:45:42;4.70;99.90
21031;DHT22;61072;47.808;7.636;2023-02-01T05:48:09;4.60;99.90
21031;DHT22;61072;47.808;7.636;2023-02-01T05:50:36;4.60;99.90
21031;DHT22;61072;47.808;7.636;2023-02-01T05:53:02;4.60;99.90
21031;DHT22;61072;47.808;7.636;2023-02-01T05:55:29;4.60;99.90
21031;DHT22;61072;47.808;7.636;2023-02-01T05:57:56;4.70;99.90
21031;DHT22;61072;47.808;7.636;2023-02-01T06:00:23;4.70;99.90
21031;DHT22;61072;47.808;7.636;2023-02-01T06:02:50;4.70;99.90
21031;DHT22;61072;47.808;7.636;2023-02-01T06:05:17;4.60;99.90
21031;DHT22;61072;47.808;7.636;2023-02-01T06:07:44;4.60;99.90
21031;DHT22;61072;47.808;7.636;2023-02-01T06:10:11;4.70;99.90
21031;DHT22;61072;47.808;7.636;2023-02-01T06:12:37;4.70;99.90
21031;DHT22;61072;47.808;7.636;2023-02-01T06:15:05;4.70;99.90
21031;DHT22;61072;47.808;7.636;2023-02-01T06:17:31;4.70;99.90
21031;DHT22;61072;47.808;7.636;2023-02-01T06:19:58;4.70;99.90
21031;DHT22;61072;47.808;7.636;2023-02-01T06:22:25;4.70;99.90
21031;DHT22;61072;47.808;7.636;2023-02-01T06:24:52;4.70;99.90
21031;DHT22;61072;47.808;7.636;2023-02-01T06:27:18;4.70;99.90
21031;DHT22;61072;47.808;7.636;2023-02-01T06:29:45;4.70;99.90
21031;DHT22;61072;47.808;7.636;2023-02-01T06:32:12;4.70;99.90
21031;DHT22;61072;47.808;7.636;2023-02-01T06:34:38;4.80;99.90
21031;DHT22;61072;47.808;7.636;2023-02-01T06:37:06;4.80;99.90
21031;DHT22;61072;47.808;7.636;2023-02-01T06:39:32;4.80;99.90
21031;DHT22;61072;47.808;7.636;2023-02-01T06:41:59;4.70;99.90
21031;DHT22;61072;47.808;7.636;2023-02-01T06:44:26;4.70;99.90
21031;DHT22;61072;47.808;7.636;2023-02-01T06:46:52;4.80;99.90
21031;DHT22;61072;47.808;7.636;2023-02-01T06:49:20;4.80;99.90
21031;DHT22;61072;47.808;7.636;2023-02-01T06:51:47;4.80;99.90
21031;DHT22;61072;47.808;7.636;2023-02-01T06:54:14;4.80;99.90
21031;DHT22;61072;47.808;7.636;2023-02-01T06:56:40;4.80;99.90
21031;DHT22;61072;47.808;7.636;2023-02-01T06:59:07;4.80;99.90
21031;DHT22;61072;47.808;7.636;2023-02-01T07:01:34;4.80;99.90
21031;DHT22;61072;47.808;7.636;2023-02-01T07:04:01;4.80;99.90
21031;DHT22;61072;47.808;7.636;2023-02-01T07:06:27;4.80;99.90
21031;DHT22;61072;47.808;7.636;2023-02-01T07:08:54;4.80;99.90
21031;DHT22;61072;47.808;7.636;2023-02-01T07:11:22;4.70;99.90
21031;DHT22;61072;47.808;7.636;2023-02-01T07:13:49;4.70;99.90
21031;DHT22;61072;47.808;7.636;2023-02-01T07:16:18;4.70;99.90
21031;DHT22;61072;47.808;7.636;2023-02-01T07:18:46;4.80;99.90
21031;DHT22;61072;47.808;7.636;2023-02-01T07:21:13;4.80;99.90
21031;DHT22;61072;47.808;7.636;2023-02-01T07:23:40;4.80;99.90
21031;DHT22;61072;47.808;7.636;2023-02-01T07:26:07;4.80;99.90
21031;DHT22;61072;47.808;7.636;2023-02-01T07:28:35;4.80;99.90
21031;DHT22;61072;47.808;7.636;2023-02-01T07:31:10;4.80;99.90
21031;DHT22;61072;47.808;7.636;2023-02-01T07:33:37;4.80;99.90
21031;DHT22;61072;47.808;7.636;2023-02-01T07:36:06;4.90;99.90
21031;DHT22;61072;47.808;7.636;2023-02-01T07:38:33;4.90;99.90
21031;DHT22;61072;47.808;7.636;2023-02-01T07:41:01;4.80;99.90
21031;DHT22;61072;47.808;7.636;2023-02-01T07:43:29;4.90;99.90
21031;DHT22;61072;47.808;7.636;2023-02-01T07:45:56;4.90;99.90
21031;DHT22;61072;47.808;7.636;2023-02-01T07:48:24;4.90;99.90
21031;DHT22;61072;47.808;7.636;2023-02-01T07:53:25;4.90;99.90
21031;DHT22;61072;47.808;7.636;2023-02-01T07:55:52;5.00;99.90
21031;DHT22;61072;47.808;7.636;2023-02-01T07:58:18;5.00;99.90
21031;DHT22;61072;47.808;7.636;2023-02-01T08:00:45;5.00;99.90
21031;DHT22;61072;47.808;7.636;2023-02-01T08:03:30;5.00;99.90
21031;DHT22;61072;47.808;7.636;2023-02-01T08:05:57;5.10;99.90
21031;DHT22;61072;47.808;7.636;2023-02-01T08:08:24;5.10;99.90
21031;DHT22;61072;47.808;7.636;2023-02-01T08:10:50;5.10;99.90
21031;DHT22;61072;47.808;7.636;2023-02-01T08:13:17;5.10;99.90
21031;DHT22;61072;47.808;7.636;2023-02-01T08:15:44;5.20;99.90
21031;DHT22;61072;47.808;7.636;2023-02-01T08:18:11;5.20;99.90
21031;DHT22;61072;47.808;7.636;2023-02-01T08:20:38;5.20;99.90
21031;DHT22;61072;47.808;7.636;2023-02-01T08:23:08;5.20;99.90
21031;DHT22;61072;47.808;7.636;2023-02-01T08:25:35;5.30;99.90
21031;DHT22;61072;47.808;7.636;2023-02-01T08:28:03;5.30;99.90
21031;DHT22;61072;47.808;7.636;2023-02-01T08:30:29;5.30;99.90
21031;DHT22;61072;47.808;7.636;2023-02-01T08:32:57;5.30;99.90
21031;DHT22;61072;47.808;7.636;2023-02-01T08:35:24;5.30;99.90
21031;DHT22;61072;47.808;7.636;2023-02-01T08:38:08;5.40;99.90
21031;DHT22;61072;47.808;7.636;2023-02-01T08:40:34;5.40;99.90
21031;DHT22;61072;47.808;7.636;2023-02-01T08:43:01;5.40;99.90
21031;DHT22;61072;47.808;7.636;2023-02-01T08:45:29;5.40;99.90
21031;DHT22;61072;47.808;7.636;2023-02-01T08:47:56;5.40;99.90
21031;DHT22;61072;47.808;7.636;2023-02-01T08:50:24;5.40;99.90
21031;DHT22;61072;47.808;7.636;2023-02-01T08:52:52;5.40;99.90
21031;DHT22;61072;47.808;7.636;2023-02-01T08:55:20;5.40;99.90
21031;DHT22;61072;47.808;7.636;2023-02-01T08:57:47;5.40;99.90
21031;DHT22;61072;47.808;7.636;2023-02-01T09:00:16;5.40;99.90
21031;DHT22;61072;47.808;7.636;2023-02-01T09:02:44;5.40;99.90
21031;DHT22;61072;47.808;7.636;2023-02-01T09:05:11;5.40;99.90
21031;DHT22;61072;47.808;7.636;2023-02-01T09:07:38;5.40;99.90
21031;DHT22;61072;47.808;7.636;2023-02-01T09:10:05;5.40;99.90
21031;DHT22;61072;47.808;7.636;2023-02-01T09:12:33;5.50;99.90
21031;DHT22;61072;47.808;7.636;2023-02-01T09:15:00;5.50;99.90
21031;DHT22;61072;47.808;7.636;2023-02-01T09:17:28;5.50;99.90
21031;DHT22;61072;47.808;7.636;2023-02-01T09:19:56;5.50;99.90
21031;DHT22;61072;47.808;7.636;2023-02-01T09:22:22;5.60;99.90
21031;DHT22;61072;47.808;7.636;2023-02-01T09:24:49;5.60;99.90
21031;DHT22;61072;47.808;7.636;2023-02-01T09:27:16;5.60;99.90
21031;DHT22;61072;47.808;7.636;2023-02-01T09:29:43;5.70;99.90
21031;DHT22;61072;47.808;7.636;2023-02-01T09:32:09;5.70;99.90
21031;DHT22;61072;47.808;7.636;2023-02-01T09:34:36;5.70;99.90
21031;DHT22;61072;47.808;7.636;2023-02-01T09:37:03;5.80;99.90
21031;DHT22;61072;47.808;7.636;2023-02-01T09:39:30;5.80;99.90
21031;DHT22;61072;47.808;7.636;2023-02-01T09:47:18;6.00;99.90
21031;DHT22;61072;47.808;7.636;2023-02-01T09:52:36;6.00;99.90
21031;DHT22;61072;47.808;7.636;2023-02-01T09:55:22;6.10;99.90
21031;DHT22;61072;47.808;7.636;2023-02-01T09:58:02;6.10;99.90
21031;DHT22;61072;47.808;7.636;2023-02-01T10:00:35;6.10;99.90
21031;DHT22;61072;47.808;7.636;2023-02-01T10:03:02;6.20;99.90
21031;DHT22;61072;47.808;7.636;2023-02-01T10:05:48;6.20;99.90
21031;DHT22;61072;47.808;7.636;2023-02-01T10:11:26;6.30;99.90
21031;DHT22;61072;47.808;7.636;2023-02-01T10:22:11;6.50;99.90
21031;DHT22;61072;47.808;7.636;2023-02-01T10:27:18;6.60;99.90
21031;DHT22;61072;47.808;7.636;2023-02-01T10:29:51;6.70;99.90
21031;DHT22;61072;47.808;7.636;2023-02-01T10:32:24;6.70;99.90
21031;DHT22;61072;47.808;7.636;2023-02-01T10:35:04;6.80;99.90
21031;DHT22;61072;47.808;7.636;2023-02-01T10:37:35;6.80;99.90
21031;DHT22;61072;47.808;7.636;2023-02-01T10:40:23;6.80;99.90
21031;DHT22;61072;47.808;7.636;2023-02-01T10:42:56;6.90;99.90
21031;DHT22;61072;47.808;7.636;2023-02-01T10:45:27;6.90;99.90
21031;DHT22;61072;47.808;7.636;2023-02-01T10:47:55;7.00;99.90
21031;DHT22;61072;47.808;7.636;2023-02-01T10:50:53;6.90;99.90
21031;DHT22;61072;47.808;7.636;2023-02-01T10:53:25;6.90;99.90
21031;DHT22;61072;47.808;7.636;2023-02-01T10:55:55;7.00;99.90
21031;DHT22;61072;47.808;7.636;2023-02-01T10:58:31;7.00;99.90
21031;DHT22;61072;47.808;7.636;2023-02-01T11:01:04;7.10;99.90
21031;DHT22;61072;47.808;7.636;2023-02-01T11:03:33;7.10;99.90
21031;DHT22;61072;47.808;7.636;2023-02-01T11:06:01;7.10;99.90
21031;DHT22;61072;47.808;7.636;2023-02-01T11:08:29;7.20;99.90
21031;DHT22;61072;47.808;7.636;2023-02-01T11:11:02;7.20;99.90
21031;DHT22;61072;47.808;7.636;2023-02-01T11:13:37;7.30;99.90
21031;DHT22;61072;47.808;7.636;2023-02-01T11:16:05;7.40;99.90
21031;DHT22;61072;47.808;7.636;2023-02-01T11:18:36;7.40;99.90
21031;DHT22;61072;47.808;7.636;2023-02-01T11:21:05;7.40;99.90
21031;DHT22;61072;47.808;7.636;2023-02-01T11:23:33;7.50;99.90
21031;DHT22;61072;47.808;7.636;2023-02-01T11:26:07;7.50;99.90
21031;DHT22;61072;47.808;7.636;2023-02-01T11:28:39;7.60;99.90
21031;DHT22;61072;47.808;7.636;2023-02-01T11:31:12;7.60;99.90
21031;DHT22;61072;47.808;7.636;2023-02-01T11:33:47;7.70;99.90
21031;DHT22;61072;47.808;7.636;2023-02-01T11:36:30;7.70;99.90
21031;DHT22;61072;47.808;7.636;2023-02-01T11:44:30;7.50;99.90
21031;DHT22;61072;47.808;7.636;2023-02-01T11:47:39;7.50;99.90
21031;DHT22;61072;47.808;7.636;2023-02-01T11:50:13;7.50;99.90
21031;DHT22;61072;47.808;7.636;2023-02-01T11:53:07;7.50;99.90
21031;DHT22;61072;47.808;7.636;2023-02-01T11:58:53;7.40;99.90
21031;DHT22;61072;47.808;7.636;2023-02-01T12:04:06;7.50;99.90
21031;DHT22;61072;47.808;7.636;2023-02-01T12:06:50;7.50;99.90
21031;DHT22;61072;47.808;7.636;2023-02-01T12:12:24;7.50;99.90
21031;DHT22;61072;47.808;7.636;2023-02-01T12:23:06;7.50;99.90
21031;DHT22;61072;47.808;7.636;2023-02-01T12:31:45;7.40;99.90
21031;DHT22;61072;47.808;7.636;2023-02-01T12:39:37;7.30;99.90
21031;DHT22;61072;47.808;7.636;2023-02-01T12:42:13;7.40;99.90
21031;DHT22;61072;47.808;7.636;2023-02-01T12:44:54;7.40;99.90
21031;DHT22;61072;47.808;7.636;2023-02-01T12:47:35;7.30;99.90
21031;DHT22;61072;47.808;7.636;2023-02-01T12:52:49;7.30;99.90
21031;DHT22;61072;47.808;7.636;2023-02-01T12:56:06;7.30;99.90
21031;DHT22;61072;47.808;7.636;2023-02-01T12:58:27;7.30;99.90
21031;DHT22;61072;47.808;7.636;2023-02-01T13:01:03;7.20;99.90
21031;DHT22;61072;47.808;7.636;2023-02-01T13:03:52;7.20;99.90
21031;DHT22;61072;47.808;7.636;2023-02-01T13:06:26;7.30;99.90
21031;DHT22;61072;47.808;7.636;2023-02-01T13:09:10;7.30;99.90
21031;DHT22;61072;47.808;7.636;2023-02-01T13:11:45;7.30;99.90
21031;DHT22;61072;47.808;7.636;2023-02-01T13:14:25;7.30;99.90
21031;DHT22;61072;47.808;7.636;2023-02-01T13:17:04;7.30;99.90
21031;DHT22;61072;47.808;7.636;2023-02-01T13:19:42;7.30;99.90
21031;DHT22;61072;47.808;7.636;2023-02-01T13:22:14;7.40;99.90
21031;DHT22;61072;47.808;7.636;2023-02-01T13:24:45;7.40;99.90
21031;DHT22;61072;47.808;7.636;2023-02-01T13:27:14;7.30;99.90
21031;DHT22;61072;47.808;7.636;2023-02-01T13:30:00;7.40;99.90
21031;DHT22;61072;47.808;7.636;2023-02-01T13:32:40;7.30;99.90
21031;DHT22;61072;47.808;7.636;2023-02-01T13:38:38;7.30;99.90
21031;DHT22;61072;47.808;7.636;2023-02-01T13:41:31;7.30;99.90
21031;DHT22;61072;47.808;7.636;2023-02-01T13:44:03;7.30;99.90
21031;DHT22;61072;47.808;7.636;2023-02-01T13:46:40;7.30;99.90
21031;DHT22;61072;47.808;7.636;2023-02-01T13:49:24;7.30;99.90
21031;DHT22;61072;47.808;7.636;2023-02-01T13:51:55;7.30;99.90
21031;DHT22;61072;47.808;7.636;2023-02-01T13:56:55;7.30;99.90
21031;DHT22;61072;47.808;7.636;2023-02-01T14:05:04;7.20;99.90
21031;DHT22;61072;47.808;7.636;2023-02-01T14:07:34;7.20;99.90
21031;DHT22;61072;47.808;7.636;2023-02-01T14:13:22;7.30;99.90
21031;DHT22;61072;47.808;7.636;2023-02-01T14:21:32;7.20;99.90
21031;DHT22;61072;47.808;7.636;2023-02-01T14:24:04;7.20;99.90
21031;DHT22;61072;47.808;7.636;2023-02-01T14:29:21;7.10;99.90
21031;DHT22;61072;47.808;7.636;2023-02-01T14:32:19;7.10;99.90
21031;DHT22;61072;47.808;7.636;2023-02-01T14:42:25;7.00;99.90
21031;DHT22;61072;47.808;7.636;2023-02-01T14:44:55;7.00;99.90
21031;DHT22;61072;47.808;7.636;2023-02-01T14:47:29;7.00;99.90
21031;DHT22;61072;47.808;7.636;2023-02-01T14:55:35;7.00;99.90
21031;DHT22;61072;47.808;7.636;2023-02-01T15:00:54;7.00;99.90
21031;DHT22;61072;47.808;7.636;2023-02-01T15:03:33;7.00;99.90
21031;DHT22;61072;47.808;7.636;2023-02-01T15:06:01;7.00;99.90
21031;DHT22;61072;47.808;7.636;2023-02-01T15:08:37;7.00;99.90
21031;DHT22;61072;47.808;7.636;2023-02-01T15:11:11;7.00;99.90
21031;DHT22;61072;47.808;7.636;2023-02-01T15:13:40;7.00;99.90
21031;DHT22;61072;47.808;7.636;2023-02-01T15:16:12;7.10;99.90
21031;DHT22;61072;47.808;7.636;2023-02-01T15:18:40;7.10;99.90
21031;DHT22;61072;47.808;7.636;2023-02-01T15:21:19;7.10;99.90
21031;DHT22;61072;47.808;7.636;2023-02-01T15:24:32;7.10;99.90
21031;DHT22;61072;47.808;7.636;2023-02-01T15:27:05;7.10;99.90
21031;DHT22;61072;47.808;7.636;2023-02-01T15:29:32;7.10;99.90
21031;DHT22;61072;47.808;7.636;2023-02-01T15:32:00;7.10;99.90
21031;DHT22;61072;47.808;7.636;2023-02-01T15:34:46;7.10;99.90
21031;DHT22;61072;47.808;7.636;2023-02-01T15:37:15;7.10;99.90
21031;DHT22;61072;47.808;7.636;2023-02-01T15:42:31;7.10;99.90
21031;DHT22;61072;47.808;7.636;2023-02-01T15:44:58;7.00;99.90
21031;DHT22;61072;47.808;7.636;2023-02-01T15:47:27;7.00;99.90
21031;DHT22;61072;47.808;7.636;2023-02-01T15:49:55;7.00;99.90
21031;DHT22;61072;47.808;7.636;2023-02-01T15:52:34;7.00;99.90
21031;DHT22;61072;47.808;7.636;2023-02-01T15:55:08;7.00;99.90
21031;DHT22;61072;47.808;7.636;2023-02-01T15:57:43;7.00;99.90
21031;DHT22;61072;47.808;7.636;2023-02-01T16:00:31;7.00;99.90
21031;DHT22;61072;47.808;7.636;2023-02-01T16:03:05;7.00;99.90
21031;DHT22;61072;47.808;7.636;2023-02-01T16:05:38;7.00;99.90
21031;DHT22;61072;47.808;7.636;2023-02-01T16:08:17;7.00;99.90
21031;DHT22;61072;47.808;7.636;2023-02-01T16:10:53;7.00;99.90
21031;DHT22;61072;47.808;7.636;2023-02-01T16:13:20;6.90;99.90
21031;DHT22;61072;47.808;7.636;2023-02-01T16:15:48;6.90;99.90
21031;DHT22;61072;47.808;7.636;2023-02-01T16:18:15;6.90;99.90
21031;DHT22;61072;47.808;7.636;2023-02-01T16:20:47;6.90;99.90
21031;DHT22;61072;47.808;7.636;2023-02-01T16:23:13;6.90;99.90
21031;DHT22;61072;47.808;7.636;2023-02-01T16:25:40;6.80;99.90
21031;DHT22;61072;47.808;7.636;2023-02-01T16:28:07;6.90;99.90
21031;DHT22;61072;47.808;7.636;2023-02-01T16:30:35;6.80;99.90
21031;DHT22;61072;47.808;7.636;2023-02-01T16:33:02;6.80;99.90
21031;DHT22;61072;47.808;7.636;2023-02-01T16:35:36;6.80;99.90
21031;DHT22;61072;47.808;7.636;2023-02-01T16:38:12;6.80;99.90
21031;DHT22;61072;47.808;7.636;2023-02-01T16:40:40;6.80;99.90
21031;DHT22;61072;47.808;7.636;2023-02-01T16:43:14;6.80;99.90
21031;DHT22;61072;47.808;7.636;2023-02-01T16:45:42;6.80;99.90
21031;DHT22;61072;47.808;7.636;2023-02-01T16:48:25;6.80;99.90
21031;DHT22;61072;47.808;7.636;2023-02-01T16:50:58;6.80;99.90
21031;DHT22;61072;47.808;7.636;2023-02-01T16:53:28;6.80;99.90
21031;DHT22;61072;47.808;7.636;2023-02-01T16:55:56;6.80;99.90
21031;DHT22;61072;47.808;7.636;2023-02-01T16:58:26;6.80;99.90
21031;DHT22;61072;47.808;7.636;2023-02-01T17:00:54;6.70;99.90
21031;DHT22;61072;47.808;7.636;2023-02-01T17:03:21;6.70;99.90
21031;DHT22;61072;47.808;7.636;2023-02-01T17:05:51;6.70;99.90
21031;DHT22;61072;47.808;7.636;2023-02-01T17:08:27;6.70;99.90
21031;DHT22;61072;47.808;7.636;2023-02-01T17:10:54;6.70;99.90
21031;DHT22;61072;47.808;7.636;2023-02-01T17:13:21;6.70;99.90
21031;DHT22;61072;47.808;7.636;2023-02-01T17:18:50;6.60;99.90
21031;DHT22;61072;47.808;7.636;2023-02-01T17:21:19;6.60;99.90
21031;DHT22;61072;47.808;7.636;2023-02-01T17:23:46;6.60;99.90
21031;DHT22;61072;47.808;7.636;2023-02-01T17:26:13;6.60;99.90
21031;DHT22;61072;47.808;7.636;2023-02-01T17:28:39;6.60;99.90
21031;DHT22;61072;47.808;7.636;2023-02-01T17:31:17;6.60;99.90
21031;DHT22;61072;47.808;7.636;2023-02-01T17:33:44;6.60;99.90
21031;DHT22;61072;47.808;7.636;2023-02-01T17:36:14;6.60;99.90
21031;DHT22;61072;47.808;7.636;2023-02-01T17:38:43;6.60;99.90
21031;DHT22;61072;47.808;7.636;2023-02-01T17:41:19;6.60;99.90
21031;DHT22;61072;47.808;7.636;2023-02-01T17:43:46;6.60;99.90
21031;DHT22;61072;47.808;7.636;2023-02-01T17:46:15;6.60;99.90
21031;DHT22;61072;47.808;7.636;2023-02-01T17:48:42;6.60;99.90
21031;DHT22;61072;47.808;7.636;2023-02-01T17:51:35;6.60;99.90
21031;DHT22;61072;47.808;7.636;2023-02-01T17:54:02;6.60;99.90
21031;DHT22;61072;47.808;7.636;2023-02-01T17:56:29;6.60;99.90
21031;DHT22;61072;47.808;7.636;2023-02-01T17:58:56;6.60;99.90
21031;DHT22;61072;47.808;7.636;2023-02-01T18:01:23;6.60;99.90
21031;DHT22;61072;47.808;7.636;2023-02-01T18:03:50;6.60;99.90
21031;DHT22;61072;47.808;7.636;2023-02-01T18:06:20;6.60;99.90
21031;DHT22;61072;47.808;7.636;2023-02-01T18:08:47;6.60;99.90
21031;DHT22;61072;47.808;7.636;2023-02-01T18:11:19;6.60;99.90
21031;DHT22;61072;47.808;7.636;2023-02-01T18:13:47;6.60;99.90
21031;DHT22;61072;47.808;7.636;2023-02-01T18:18:50;6.60;99.90
21031;DHT22;61072;47.808;7.636;2023-02-01T18:21:19;6.50;99.90
21031;DHT22;61072;47.808;7.636;2023-02-01T18:23:47;6.50;99.90
21031;DHT22;61072;47.808;7.636;2023-02-01T18:26:16;6.50;99.90
21031;DHT22;61072;47.808;7.636;2023-02-01T18:28:43;6.50;99.90
21031;DHT22;61072;47.808;7.636;2023-02-01T18:31:21;6.60;99.90
21031;DHT22;61072;47.808;7.636;2023-02-01T18:33:49;6.50;99.90